createdAt,value
2015-10-31T00:00:11.540Z,4.73
2015-10-31T00:00:23.837Z,4.74
2015-10-31T00:00:36.134Z,4.73
2015-10-31T00:00:48.434Z,4.77
2015-10-31T00:01:00.746Z,4.7
2015-10-31T00:01:13.043Z,4.66
2015-10-31T00:01:25.200Z,4.71
2015-10-31T00:01:37.512Z,4.82
2015-10-31T00:01:49.843Z,4.78
2015-10-31T00:02:02.171Z,4.78
2015-10-31T00:02:14.499Z,4.78
2015-10-31T00:02:26.843Z,4.82
2015-10-31T00:02:39.127Z,4.84
2015-10-31T00:02:51.424Z,4.86
2015-10-31T00:03:03.706Z,4.78
2015-10-31T00:03:16.018Z,4.84
2015-10-31T00:03:28.315Z,4.87
2015-10-31T00:03:40.614Z,4.82
2015-10-31T00:03:52.926Z,4.78
2015-10-31T00:04:05.223Z,4.86
2015-10-31T00:04:17.536Z,4.84
2015-10-31T00:04:29.864Z,4.89
2015-10-31T00:04:42.195Z,4.86
2015-10-31T00:04:54.554Z,4.77
2015-10-31T00:05:06.836Z,4.77
2015-10-31T00:05:19.132Z,4.82
2015-10-31T00:05:31.445Z,4.8
2015-10-31T00:05:43.745Z,4.82
2015-10-31T00:05:56.026Z,4.86
2015-10-31T00:06:08.323Z,4.82
2015-10-31T00:06:20.620Z,4.8
2015-10-31T00:06:32.932Z,4.86
2015-10-31T00:06:45.247Z,4.8
2015-10-31T00:06:57.575Z,4.82
2015-10-31T00:07:09.903Z,4.77
2015-10-31T00:07:22.294Z,4.86
2015-10-31T00:07:34.591Z,4.89
2015-10-31T00:07:46.891Z,4.82
2015-10-31T00:07:59.204Z,4.75
2015-10-31T00:08:11.501Z,4.78
2015-10-31T00:08:23.798Z,4.78
2015-10-31T00:08:36.095Z,4.8
2015-10-31T00:08:48.409Z,4.7
2015-10-31T00:09:00.737Z,4.8
2015-10-31T00:09:13.081Z,4.78
2015-10-31T00:09:25.378Z,4.78
2015-10-31T00:09:37.675Z,4.75
2015-10-31T00:09:49.990Z,4.87
2015-10-31T00:10:02.287Z,4.74
2015-10-31T00:10:14.615Z,4.7
2015-10-31T00:10:26.928Z,4.78
2015-10-31T00:10:39.240Z,4.75
2015-10-31T00:10:51.570Z,4.73
2015-10-31T00:11:03.914Z,4.74
2015-10-31T00:11:16.242Z,4.68
2015-10-31T00:11:28.555Z,4.74
2015-10-31T00:11:40.852Z,4.75
2015-10-31T00:11:53.152Z,4.7
2015-10-31T00:12:05.465Z,4.77
2015-10-31T00:12:17.762Z,4.7
2015-10-31T00:12:30.059Z,4.73
2015-10-31T00:12:42.371Z,4.68
2015-10-31T00:12:54.733Z,4.68
2015-10-31T00:13:07.061Z,4.78
2015-10-31T00:13:19.389Z,4.78
2015-10-31T00:13:31.733Z,4.86
2015-10-31T00:13:44.029Z,4.78
2015-10-31T00:13:56.329Z,4.71
2015-10-31T00:14:08.626Z,4.75
2015-10-31T00:14:20.923Z,4.82
2015-10-31T00:14:33.220Z,4.74
2015-10-31T00:14:45.517Z,4.78
2015-10-31T00:14:57.831Z,4.74
2015-10-31T00:15:10.159Z,4.71
2015-10-31T00:15:22.472Z,4.78
2015-10-31T00:15:34.800Z,4.74
2015-10-31T00:15:47.131Z,4.78
2015-10-31T00:15:59.506Z,4.74
2015-10-31T00:16:11.803Z,4.75
2015-10-31T00:16:24.100Z,4.75
2015-10-31T00:16:36.397Z,4.68
2015-10-31T00:16:48.697Z,4.7
2015-10-31T00:17:01.025Z,4.63
2015-10-31T00:17:13.306Z,4.71
2015-10-31T00:17:25.619Z,4.66
2015-10-31T00:17:37.931Z,4.62
2015-10-31T00:17:50.247Z,4.63
2015-10-31T00:18:02.434Z,4.66
2015-10-31T00:18:14.747Z,4.63
2015-10-31T00:18:27.043Z,4.62
2015-10-31T00:18:39.340Z,4.56
2015-10-31T00:18:51.624Z,4.62
2015-10-31T00:19:03.920Z,4.62
2015-10-31T00:19:16.217Z,4.66
2015-10-31T00:19:28.530Z,4.6
2015-10-31T00:19:40.827Z,4.56
2015-10-31T00:19:53.157Z,4.68
2015-10-31T00:20:05.485Z,4.53
2015-10-31T00:20:17.829Z,4.66
2015-10-31T00:20:30.126Z,4.67
2015-10-31T00:20:42.422Z,4.62
2015-10-31T00:20:54.739Z,4.67
2015-10-31T00:21:07.036Z,4.62
2015-10-31T00:21:19.333Z,4.68
2015-10-31T00:21:31.630Z,4.66
2015-10-31T00:21:43.926Z,4.66
2015-10-31T00:21:56.225Z,4.67
2015-10-31T00:22:08.538Z,4.66
2015-10-31T00:22:20.866Z,4.66
2015-10-31T00:22:33.210Z,4.7
2015-10-31T00:22:45.522Z,4.71
2015-10-31T00:22:57.838Z,4.66
2015-10-31T00:23:10.135Z,4.67
2015-10-31T00:23:22.431Z,4.66
2015-10-31T00:23:34.728Z,4.62
2015-10-31T00:23:47.028Z,4.59
2015-10-31T00:23:59.325Z,4.63
2015-10-31T00:24:11.638Z,4.66
2015-10-31T00:24:23.950Z,4.67
2015-10-31T00:24:36.263Z,4.66
2015-10-31T00:24:48.593Z,4.56
2015-10-31T00:25:00.765Z,4.58
2015-10-31T00:25:13.093Z,4.67
2015-10-31T00:25:25.390Z,4.62
2015-10-31T00:25:37.686Z,4.67
2015-10-31T00:25:49.986Z,4.67
2015-10-31T00:26:02.283Z,4.67
2015-10-31T00:26:14.564Z,4.7
2015-10-31T00:26:26.861Z,4.7
2015-10-31T00:26:39.189Z,4.71
2015-10-31T00:26:51.488Z,4.71
2015-10-31T00:27:03.816Z,4.59
2015-10-31T00:27:16.160Z,4.68
2015-10-31T00:27:28.457Z,4.75
2015-10-31T00:27:40.754Z,4.73
2015-10-31T00:27:53.054Z,4.73
2015-10-31T00:28:05.366Z,4.7
2015-10-31T00:28:17.663Z,4.7
2015-10-31T00:28:29.960Z,4.71
2015-10-31T00:28:42.257Z,4.75
2015-10-31T00:28:54.572Z,4.75
2015-10-31T00:29:06.885Z,4.75
2015-10-31T00:29:19.213Z,4.78
2015-10-31T00:29:31.526Z,4.86
2015-10-31T00:29:43.869Z,4.73
2015-10-31T00:29:56.216Z,4.77
2015-10-31T00:30:08.513Z,4.78
2015-10-31T00:30:20.810Z,4.77
2015-10-31T00:30:33.107Z,4.8
2015-10-31T00:30:45.419Z,4.82
2015-10-31T00:30:57.734Z,4.86
2015-10-31T00:31:10.046Z,4.86
2015-10-31T00:31:22.374Z,4.84
2015-10-31T00:31:34.687Z,4.8
2015-10-31T00:31:46.987Z,4.82
2015-10-31T00:31:59.299Z,4.89
2015-10-31T00:32:11.596Z,4.82
2015-10-31T00:32:23.893Z,4.86
2015-10-31T00:32:36.205Z,4.89
2015-10-31T00:32:48.504Z,4.9
2015-10-31T00:33:00.848Z,4.9
2015-10-31T00:33:13.176Z,4.89
2015-10-31T00:33:25.520Z,4.9
2015-10-31T00:33:37.817Z,4.94
2015-10-31T00:33:50.102Z,4.84
2015-10-31T00:34:02.415Z,4.9
2015-10-31T00:34:14.711Z,4.87
2015-10-31T00:34:27.008Z,4.86
2015-10-31T00:34:39.305Z,4.92
2015-10-31T00:34:51.620Z,4.93
2015-10-31T00:35:03.932Z,4.94
2015-10-31T00:35:16.245Z,4.94
2015-10-31T00:35:28.573Z,4.96
2015-10-31T00:35:40.901Z,4.94
2015-10-31T00:35:53.247Z,4.92
2015-10-31T00:36:05.559Z,4.99
2015-10-31T00:36:17.856Z,5.1
2015-10-31T00:36:30.153Z,5.05
2015-10-31T00:36:42.294Z,5.08
2015-10-31T00:36:54.594Z,5.08
2015-10-31T00:37:06.891Z,5.1
2015-10-31T00:37:19.204Z,5.1
2015-10-31T00:37:31.532Z,5.14
2015-10-31T00:37:43.844Z,5.15
2015-10-31T00:37:56.175Z,5.15
2015-10-31T00:38:08.518Z,5.15
2015-10-31T00:38:34.987Z,5.11
2015-10-31T00:38:47.287Z,5.11
2015-10-31T00:38:59.584Z,5.11
2015-10-31T00:39:11.896Z,5.14
2015-10-31T00:39:24.193Z,5.15
2015-10-31T00:39:36.490Z,5.2
2015-10-31T00:40:15.290Z,5.23
2015-10-31T00:40:27.618Z,5.17
2015-10-31T00:40:39.946Z,5.23
2015-10-31T00:40:52.277Z,5.23
2015-10-31T00:41:04.590Z,5.28
2015-10-31T00:41:16.887Z,5.32
2015-10-31T00:41:29.199Z,5.29
2015-10-31T00:41:41.496Z,5.23
2015-10-31T00:41:53.795Z,5.3
2015-10-31T00:42:06.092Z,5.26
2015-10-31T00:42:18.389Z,5.26
2015-10-31T00:42:30.732Z,5.21
2015-10-31T00:42:43.045Z,5.3
2015-10-31T00:42:55.392Z,5.18
2015-10-31T00:43:07.735Z,5.26
2015-10-31T00:43:20.032Z,5.26
2015-10-31T00:43:32.329Z,5.21
2015-10-31T00:43:44.626Z,5.17
2015-10-31T00:43:56.925Z,5.14
2015-10-31T00:44:09.237Z,5.2
2015-10-31T00:44:21.534Z,5.23
2015-10-31T00:44:33.831Z,5.25
2015-10-31T00:44:46.144Z,5.14
2015-10-31T00:44:58.459Z,5.08
2015-10-31T00:45:10.787Z,5.21
2015-10-31T00:45:23.131Z,5.11
2015-10-31T00:45:35.428Z,5.15
2015-10-31T00:45:47.728Z,5.2
2015-10-31T00:46:00.025Z,5.23
2015-10-31T00:46:12.322Z,5.2
2015-10-31T00:46:24.634Z,5.11
2015-10-31T00:46:36.931Z,5.21
2015-10-31T00:46:49.231Z,5.21
2015-10-31T00:47:01.559Z,5.29
2015-10-31T00:47:13.871Z,5.26
2015-10-31T00:47:26.200Z,5.29
2015-10-31T00:47:38.543Z,5.29
2015-10-31T00:47:50.873Z,5.29
2015-10-31T00:48:03.170Z,5.36
2015-10-31T00:48:15.452Z,5.29
2015-10-31T00:48:27.748Z,5.39
2015-10-31T00:48:40.061Z,5.35
2015-10-31T00:48:52.361Z,5.41
2015-10-31T00:49:04.642Z,5.41
2015-10-31T00:49:16.955Z,5.51
2015-10-31T00:49:29.267Z,5.41
2015-10-31T00:49:41.580Z,5.41
2015-10-31T00:49:53.926Z,5.41
2015-10-31T00:50:06.254Z,5.46
2015-10-31T00:50:18.614Z,5.46
2015-10-31T00:50:30.911Z,5.47
2015-10-31T00:50:43.208Z,5.48
2015-10-31T00:50:55.522Z,5.48
2015-10-31T00:51:07.819Z,5.51
2015-10-31T00:51:20.131Z,5.56
2015-10-31T00:51:32.428Z,5.5
2015-10-31T00:51:44.725Z,5.54
2015-10-31T00:51:57.041Z,5.53
2015-10-31T00:52:09.353Z,5.68
2015-10-31T00:52:21.681Z,5.54
2015-10-31T00:52:34.009Z,5.64
2015-10-31T00:52:46.338Z,5.57
2015-10-31T00:52:58.637Z,5.54
2015-10-31T00:53:10.934Z,5.61
2015-10-31T00:53:23.216Z,5.53
2015-10-31T00:53:35.528Z,5.53
2015-10-31T00:53:47.825Z,5.54
2015-10-31T00:54:00.125Z,5.51
2015-10-31T00:54:12.406Z,5.5
2015-10-31T00:54:24.719Z,5.48
2015-10-31T00:54:37.047Z,5.43
2015-10-31T00:54:49.375Z,5.56
2015-10-31T00:55:01.721Z,5.46
2015-10-31T00:55:14.049Z,5.48
2015-10-31T00:55:26.346Z,5.48
2015-10-31T00:55:38.642Z,5.5
2015-10-31T00:55:50.942Z,5.43
2015-10-31T00:56:03.239Z,5.36
2015-10-31T00:56:15.536Z,5.48
2015-10-31T00:56:27.849Z,5.41
2015-10-31T00:56:40.161Z,5.32
2015-10-31T00:56:52.460Z,5.33
2015-10-31T00:57:04.772Z,5.33
2015-10-31T00:57:17.101Z,5.26
2015-10-31T00:57:29.460Z,5.23
2015-10-31T00:57:41.788Z,5.2
2015-10-31T00:57:54.119Z,5.15
2015-10-31T00:58:06.416Z,5.21
2015-10-31T00:58:18.713Z,5.14
2015-10-31T00:58:31.010Z,5.14
2015-10-31T00:58:43.307Z,5.1
2015-10-31T00:58:55.639Z,5.1
2015-10-31T00:59:07.936Z,5.07
2015-10-31T00:59:20.279Z,5.04
2015-10-31T00:59:32.592Z,5.02
2015-10-31T00:59:44.904Z,4.92
2015-10-31T00:59:57.235Z,4.96
2015-10-31T01:00:09.594Z,5
2015-10-31T01:00:21.906Z,4.94
2015-10-31T01:00:34.219Z,4.93
2015-10-31T01:00:46.531Z,4.87
2015-10-31T01:00:58.830Z,4.97
2015-10-31T01:01:11.127Z,4.89
2015-10-31T01:01:23.440Z,4.84
2015-10-31T01:01:35.737Z,4.86
2015-10-31T01:01:48.065Z,4.82
2015-10-31T01:02:00.380Z,4.89
2015-10-31T01:02:12.708Z,4.96
2015-10-31T01:02:25.036Z,4.86
2015-10-31T01:02:37.365Z,4.87
2015-10-31T01:02:49.693Z,4.82
2015-10-31T01:03:02.008Z,4.77
2015-10-31T01:03:14.305Z,4.78
2015-10-31T01:03:26.602Z,4.78
2015-10-31T01:03:38.899Z,4.86
2015-10-31T01:03:51.196Z,4.68
2015-10-31T01:04:03.496Z,4.71
2015-10-31T01:04:15.808Z,4.71
2015-10-31T01:04:27.964Z,4.73
2015-10-31T01:04:40.277Z,4.71
2015-10-31T01:04:52.605Z,4.67
2015-10-31T01:05:04.920Z,4.62
2015-10-31T01:05:17.217Z,4.58
2015-10-31T01:05:29.358Z,4.58
2015-10-31T01:05:41.655Z,4.55
2015-10-31T01:05:53.952Z,4.56
2015-10-31T01:06:06.266Z,4.49
2015-10-31T01:06:18.579Z,4.52
2015-10-31T01:06:30.907Z,4.48
2015-10-31T01:06:43.251Z,4.48
2015-10-31T01:06:55.563Z,4.42
2015-10-31T01:07:07.863Z,4.49
2015-10-31T01:07:20.175Z,4.41
2015-10-31T01:07:32.472Z,4.44
2015-10-31T01:07:44.769Z,4.49
2015-10-31T01:07:57.066Z,4.4
2015-10-31T01:08:09.366Z,4.48
2015-10-31T01:08:21.522Z,4.44
2015-10-31T01:08:33.835Z,4.41
2015-10-31T01:08:46.178Z,4.38
2015-10-31T01:08:58.507Z,4.41
2015-10-31T01:09:10.853Z,4.38
2015-10-31T01:09:23.181Z,4.38
2015-10-31T01:09:35.478Z,4.41
2015-10-31T01:09:47.760Z,4.3
2015-10-31T01:10:00.072Z,4.28
2015-10-31T01:10:12.355Z,4.37
2015-10-31T01:10:24.668Z,4.34
2015-10-31T01:10:36.965Z,4.34
2015-10-31T01:10:49.277Z,4.4
2015-10-31T01:11:01.605Z,4.44
2015-10-31T01:11:13.936Z,4.38
2015-10-31T01:11:26.296Z,4.28
2015-10-31T01:11:38.624Z,4.32
2015-10-31T01:11:50.952Z,4.34
2015-10-31T01:12:03.280Z,4.24
2015-10-31T01:12:15.580Z,4.24
2015-10-31T01:12:27.877Z,4.28
2015-10-31T01:12:40.174Z,4.23
2015-10-31T01:12:52.486Z,4.35
2015-10-31T01:13:04.799Z,4.23
2015-10-31T01:13:17.129Z,4.31
2015-10-31T01:13:29.488Z,4.26
2015-10-31T01:13:41.801Z,4.24
2015-10-31T01:13:54.098Z,4.26
2015-10-31T01:14:06.410Z,4.37
2015-10-31T01:14:18.710Z,4.34
2015-10-31T01:14:31.023Z,4.35
2015-10-31T01:14:43.304Z,4.35
2015-10-31T01:14:55.616Z,4.34
2015-10-31T01:15:07.913Z,4.37
2015-10-31T01:15:20.229Z,4.35
2015-10-31T01:15:32.572Z,4.28
2015-10-31T01:15:44.901Z,4.28
2015-10-31T01:15:57.229Z,4.4
2015-10-31T01:16:09.541Z,4.3
2015-10-31T01:16:21.840Z,4.34
2015-10-31T01:16:34.137Z,4.24
2015-10-31T01:16:46.434Z,4.28
2015-10-31T01:16:58.731Z,4.35
2015-10-31T01:17:11.059Z,4.24
2015-10-31T01:17:23.359Z,4.31
2015-10-31T01:17:35.671Z,4.31
2015-10-31T01:17:47.968Z,4.28
2015-10-31T01:18:00.296Z,4.28
2015-10-31T01:18:12.624Z,4.26
2015-10-31T01:18:24.955Z,4.26
2015-10-31T01:18:37.299Z,4.22
2015-10-31T01:18:49.596Z,4.22
2015-10-31T01:19:01.893Z,4.2
2015-10-31T01:19:14.190Z,4.2
2015-10-31T01:19:26.489Z,4.22
2015-10-31T01:19:38.770Z,4.22
2015-10-31T01:19:51.082Z,4.2
2015-10-31T01:20:03.379Z,4.2
2015-10-31T01:20:15.676Z,4.19
2015-10-31T01:20:28.008Z,4.24
2015-10-31T01:20:40.336Z,4.19
2015-10-31T01:20:52.680Z,4.06
2015-10-31T01:21:04.977Z,4.14
2015-10-31T01:21:17.274Z,4.12
2015-10-31T01:21:29.573Z,4.1
2015-10-31T01:21:41.870Z,4.02
2015-10-31T01:21:54.167Z,4.04
2015-10-31T01:22:06.463Z,4.04
2015-10-31T01:22:18.760Z,4.01
2015-10-31T01:22:31.076Z,4.13
2015-10-31T01:22:43.404Z,4.02
2015-10-31T01:23:18.576Z,4.08
2015-10-31T01:23:30.735Z,4.01
2015-10-31T01:23:43.032Z,4.02
2015-10-31T01:23:55.329Z,4.04
2015-10-31T01:24:07.626Z,4.08
2015-10-31T01:24:19.938Z,4.12
2015-10-31T01:24:32.254Z,4.02
2015-10-31T01:24:44.597Z,4.05
2015-10-31T01:24:56.926Z,4.08
2015-10-31T01:25:09.269Z,3.99
2015-10-31T01:25:21.613Z,3.99
2015-10-31T01:25:33.913Z,3.92
2015-10-31T01:25:46.210Z,3.99
2015-10-31T01:25:58.507Z,3.86
2015-10-31T01:26:10.804Z,3.88
2015-10-31T01:26:23.100Z,3.84
2015-10-31T01:26:35.399Z,3.92
2015-10-31T01:26:47.571Z,3.81
2015-10-31T01:26:59.884Z,3.88
2015-10-31T01:27:12.212Z,3.92
2015-10-31T01:27:24.540Z,3.87
2015-10-31T01:27:36.887Z,3.88
2015-10-31T01:27:49.184Z,3.94
2015-10-31T01:28:01.480Z,3.87
2015-10-31T01:28:13.793Z,3.94
2015-10-31T01:28:26.090Z,3.86
2015-10-31T01:28:38.421Z,3.92
2015-10-31T01:28:50.733Z,3.94
2015-10-31T01:29:03.030Z,3.88
2015-10-31T01:29:15.343Z,3.8
2015-10-31T01:29:27.655Z,3.95
2015-10-31T01:29:39.955Z,3.91
2015-10-31T01:29:52.236Z,3.84
2015-10-31T01:30:04.518Z,3.86
2015-10-31T01:30:16.815Z,3.94
2015-10-31T01:30:29.111Z,3.84
2015-10-31T01:30:41.426Z,3.77
2015-10-31T01:30:53.738Z,3.83
2015-10-31T01:31:06.035Z,3.91
2015-10-31T01:31:18.379Z,3.92
2015-10-31T01:31:30.801Z,3.88
2015-10-31T01:31:43.101Z,3.87
2015-10-31T01:31:55.398Z,3.95
2015-10-31T01:32:07.695Z,3.91
2015-10-31T01:32:20.007Z,3.94
2015-10-31T01:32:32.304Z,3.88
2015-10-31T01:32:44.619Z,3.94
2015-10-31T01:32:56.948Z,3.84
2015-10-31T01:33:09.244Z,3.92
2015-10-31T01:33:21.541Z,3.95
2015-10-31T01:33:33.104Z,3.95
2015-10-31T01:33:45.403Z,3.87
2015-10-31T01:33:57.700Z,3.95
2015-10-31T01:34:09.996Z,3.99
2015-10-31T01:34:22.293Z,4.05
2015-10-31T01:34:34.606Z,4.12
2015-10-31T01:34:46.921Z,4.08
2015-10-31T01:34:59.234Z,4.05
2015-10-31T01:35:11.546Z,4.19
2015-10-31T01:35:23.890Z,4.23
2015-10-31T01:35:36.249Z,4.17
2015-10-31T01:35:48.533Z,4.24
2015-10-31T01:36:00.830Z,4.22
2015-10-31T01:36:13.126Z,4.34
2015-10-31T01:36:25.423Z,4.2
2015-10-31T01:36:37.740Z,4.24
2015-10-31T01:36:50.021Z,4.35
2015-10-31T01:37:02.318Z,4.35
2015-10-31T01:37:14.615Z,4.38
2015-10-31T01:37:26.927Z,4.34
2015-10-31T01:37:39.257Z,4.34
2015-10-31T01:37:51.617Z,4.3
2015-10-31T01:38:03.961Z,4.37
2015-10-31T01:38:16.273Z,4.44
2015-10-31T01:38:28.570Z,4.4
2015-10-31T01:38:40.854Z,4.4
2015-10-31T01:38:53.135Z,4.4
2015-10-31T01:39:05.432Z,4.4
2015-10-31T01:39:17.729Z,4.44
2015-10-31T01:39:30.042Z,4.42
2015-10-31T01:39:42.342Z,4.48
2015-10-31T01:39:54.654Z,4.52
2015-10-31T01:40:06.982Z,4.58
2015-10-31T01:40:19.279Z,4.53
2015-10-31T01:40:31.576Z,4.59
2015-10-31T01:40:43.875Z,4.62
2015-10-31T01:40:56.172Z,4.58
2015-10-31T01:41:08.469Z,4.6
2015-10-31T01:41:20.765Z,4.62
2015-10-31T01:41:33.078Z,4.58
2015-10-31T01:41:45.378Z,4.56
2015-10-31T01:41:57.690Z,4.63
2015-10-31T01:42:10.018Z,4.6
2015-10-31T01:42:22.347Z,4.63
2015-10-31T01:42:34.675Z,4.66
2015-10-31T01:42:46.975Z,4.62
2015-10-31T01:42:59.271Z,4.66
2015-10-31T01:43:11.553Z,4.67
2015-10-31T01:43:23.865Z,4.62
2015-10-31T01:43:36.162Z,4.68
2015-10-31T01:43:48.445Z,4.7
2015-10-31T01:44:00.727Z,4.67
2015-10-31T01:44:13.055Z,4.66
2015-10-31T01:44:25.211Z,4.66
2015-10-31T01:44:37.523Z,4.62
2015-10-31T01:44:49.839Z,4.58
2015-10-31T01:45:02.183Z,4.58
2015-10-31T01:45:14.480Z,4.58
2015-10-31T01:45:26.792Z,4.55
2015-10-31T01:45:39.089Z,4.53
2015-10-31T01:45:51.389Z,4.6
2015-10-31T01:46:03.701Z,4.56
2015-10-31T01:46:15.998Z,4.6
2015-10-31T01:46:28.295Z,4.55
2015-10-31T01:46:40.608Z,4.49
2015-10-31T01:46:52.923Z,4.53
2015-10-31T01:47:05.251Z,4.49
2015-10-31T01:47:17.579Z,4.53
2015-10-31T01:47:29.939Z,4.53
2015-10-31T01:47:42.114Z,4.49
2015-10-31T01:47:54.442Z,4.49
2015-10-31T01:48:06.739Z,4.45
2015-10-31T01:48:19.035Z,4.48
2015-10-31T01:48:31.348Z,4.44
2015-10-31T01:48:43.647Z,4.49
2015-10-31T01:48:55.944Z,4.37
2015-10-31T01:49:08.241Z,4.41
2015-10-31T01:49:20.553Z,4.44
2015-10-31T01:49:32.866Z,4.41
2015-10-31T01:49:45.196Z,4.4
2015-10-31T01:49:57.524Z,4.4
2015-10-31T01:50:09.805Z,4.4
2015-10-31T01:50:22.102Z,4.49
2015-10-31T01:50:34.414Z,4.41
2015-10-31T01:50:46.715Z,4.45
2015-10-31T01:50:59.012Z,4.56
2015-10-31T01:51:11.293Z,4.6
2015-10-31T01:51:23.606Z,4.59
2015-10-31T01:51:35.934Z,4.55
2015-10-31T01:51:48.249Z,4.63
2015-10-31T01:52:00.561Z,4.7
2015-10-31T01:52:12.858Z,4.67
2015-10-31T01:52:25.170Z,4.71
2015-10-31T01:52:37.483Z,4.73
2015-10-31T01:52:49.798Z,4.67
2015-10-31T01:53:02.127Z,4.71
2015-10-31T01:53:14.486Z,4.74
2015-10-31T01:53:26.814Z,4.87
2015-10-31T01:53:39.111Z,4.84
2015-10-31T01:53:51.411Z,4.82
2015-10-31T01:54:03.708Z,4.86
2015-10-31T01:54:16.020Z,4.84
2015-10-31T01:54:28.348Z,4.77
2015-10-31T01:54:40.645Z,4.89
2015-10-31T01:54:52.960Z,4.77
2015-10-31T01:55:05.272Z,4.87
2015-10-31T01:55:17.600Z,4.87
2015-10-31T01:55:29.928Z,4.75
2015-10-31T01:55:42.259Z,4.8
2015-10-31T01:55:54.587Z,4.74
2015-10-31T01:56:06.899Z,4.7
2015-10-31T01:56:19.196Z,4.78
2015-10-31T01:56:31.493Z,4.73
2015-10-31T01:56:43.808Z,4.66
2015-10-31T01:56:56.105Z,4.77
2015-10-31T01:57:08.418Z,4.7
2015-10-31T01:57:20.715Z,4.7
2015-10-31T01:57:33.027Z,4.78
2015-10-31T01:57:45.358Z,4.68
2015-10-31T01:57:57.686Z,4.62
2015-10-31T01:58:10.015Z,4.7
2015-10-31T01:58:22.343Z,4.73
2015-10-31T01:58:34.655Z,4.73
2015-10-31T01:58:46.939Z,4.75
2015-10-31T01:58:59.252Z,4.68
2015-10-31T01:59:11.549Z,4.77
2015-10-31T01:59:23.846Z,4.75
2015-10-31T01:59:36.158Z,4.7
2015-10-31T01:59:48.474Z,4.71
2015-10-31T02:00:00.786Z,4.7
2015-10-31T02:00:13.114Z,4.71
2015-10-31T02:00:25.442Z,4.6
2015-10-31T02:00:37.739Z,4.7
2015-10-31T02:00:50.038Z,4.7
2015-10-31T02:01:02.335Z,4.66
2015-10-31T02:01:14.648Z,4.67
2015-10-31T02:01:26.944Z,4.68
2015-10-31T02:01:39.273Z,4.66
2015-10-31T02:01:51.587Z,4.62
2015-10-31T02:02:03.915Z,4.66
2015-10-31T02:02:16.243Z,4.56
2015-10-31T02:02:28.603Z,4.63
2015-10-31T02:02:40.931Z,4.63
2015-10-31T02:02:53.246Z,4.67
2015-10-31T02:03:05.543Z,4.63
2015-10-31T02:03:17.840Z,4.67
2015-10-31T02:03:30.137Z,4.68
2015-10-31T02:03:42.449Z,4.63
2015-10-31T02:03:54.749Z,4.7
2015-10-31T02:04:07.077Z,4.74
2015-10-31T02:04:19.390Z,4.66
2015-10-31T02:04:31.718Z,4.71
2015-10-31T02:04:44.064Z,4.68
2015-10-31T02:04:56.361Z,4.71
2015-10-31T02:05:08.658Z,4.74
2015-10-31T02:05:20.954Z,4.73
2015-10-31T02:05:33.220Z,4.71
2015-10-31T02:05:45.536Z,4.63
2015-10-31T02:05:57.817Z,4.62
2015-10-31T02:06:10.114Z,4.63
2015-10-31T02:06:22.411Z,4.56
2015-10-31T02:06:34.739Z,4.55
2015-10-31T02:06:47.054Z,4.58
2015-10-31T02:06:59.351Z,4.59
2015-10-31T02:07:11.492Z,4.55
2015-10-31T02:07:23.789Z,4.5
2015-10-31T02:07:36.085Z,4.48
2015-10-31T02:07:48.417Z,4.38
2015-10-31T02:08:00.729Z,4.42
2015-10-31T02:08:13.042Z,4.41
2015-10-31T02:08:25.370Z,4.38
2015-10-31T02:08:37.667Z,4.38
2015-10-31T02:08:49.966Z,4.37
2015-10-31T02:09:02.295Z,4.37
2015-10-31T02:09:14.607Z,4.34
2015-10-31T02:09:26.904Z,4.34
2015-10-31T02:09:39.216Z,4.34
2015-10-31T02:09:51.563Z,4.37
2015-10-31T02:10:03.891Z,4.35
2015-10-31T02:10:16.219Z,4.41
2015-10-31T02:10:28.516Z,4.38
2015-10-31T02:10:40.813Z,4.4
2015-10-31T02:10:53.112Z,4.42
2015-10-31T02:11:05.409Z,4.44
2015-10-31T02:11:17.706Z,4.42
2015-10-31T02:11:30.034Z,4.48
2015-10-31T02:11:42.331Z,4.49
2015-10-31T02:11:54.677Z,4.44
2015-10-31T02:12:07.005Z,4.45
2015-10-31T02:12:19.317Z,4.49
2015-10-31T02:12:31.614Z,4.55
2015-10-31T02:12:43.930Z,4.53
2015-10-31T02:12:56.226Z,4.53
2015-10-31T02:13:08.523Z,4.56
2015-10-31T02:13:20.820Z,4.52
2015-10-31T02:13:33.133Z,4.5
2015-10-31T02:13:45.433Z,4.52
2015-10-31T02:13:57.745Z,4.55
2015-10-31T02:14:10.073Z,4.48
2015-10-31T02:14:22.401Z,4.55
2015-10-31T02:14:34.714Z,4.48
2015-10-31T02:14:46.857Z,4.52
2015-10-31T02:14:59.154Z,4.56
2015-10-31T02:15:11.451Z,4.48
2015-10-31T02:15:23.748Z,4.58
2015-10-31T02:15:36.061Z,4.58
2015-10-31T02:15:48.344Z,4.53
2015-10-31T02:16:00.656Z,4.55
2015-10-31T02:16:12.969Z,4.55
2015-10-31T02:16:25.313Z,4.48
2015-10-31T02:16:37.641Z,4.53
2015-10-31T02:16:49.949Z,4.55
2015-10-31T02:17:02.246Z,4.55
2015-10-31T02:17:14.559Z,4.52
2015-10-31T02:17:26.871Z,4.52
2015-10-31T02:17:39.168Z,4.55
2015-10-31T02:17:51.459Z,4.5
2015-10-31T02:18:03.756Z,4.53
2015-10-31T02:18:16.068Z,4.56
2015-10-31T02:18:28.381Z,4.52
2015-10-31T02:18:40.709Z,4.53
2015-10-31T02:18:53.015Z,4.56
2015-10-31T02:19:05.359Z,4.44
2015-10-31T02:19:17.703Z,4.44
2015-10-31T02:19:30.015Z,4.45
2015-10-31T02:19:42.312Z,4.44
2015-10-31T02:19:54.603Z,4.44
2015-10-31T02:20:06.900Z,4.44
2015-10-31T02:20:19.212Z,4.4
2015-10-31T02:20:31.509Z,4.38
2015-10-31T02:20:43.800Z,4.41
2015-10-31T02:20:55.956Z,4.32
2015-10-31T02:21:08.269Z,4.44
2015-10-31T02:21:20.628Z,4.42
2015-10-31T02:21:32.972Z,4.38
2015-10-31T02:21:45.266Z,4.38
2015-10-31T02:21:57.563Z,4.38
2015-10-31T02:22:09.860Z,4.4
2015-10-31T02:22:22.172Z,4.4
2015-10-31T02:22:34.485Z,4.44
2015-10-31T02:22:46.797Z,4.41
2015-10-31T02:22:59.125Z,4.48
2015-10-31T02:23:11.453Z,4.48
2015-10-31T02:23:23.797Z,4.41
2015-10-31T02:23:36.110Z,4.48
2015-10-31T02:23:48.406Z,4.55
2015-10-31T02:24:00.702Z,4.52
2015-10-31T02:24:13.015Z,4.56
2015-10-31T02:24:25.327Z,4.53
2015-10-31T02:24:37.609Z,4.62
2015-10-31T02:24:49.920Z,4.56
2015-10-31T02:25:02.217Z,4.66
2015-10-31T02:25:14.530Z,4.67
2015-10-31T02:25:26.858Z,4.68
2015-10-31T02:25:39.201Z,4.7
2015-10-31T02:25:51.530Z,4.7
2015-10-31T02:26:03.858Z,4.78
2015-10-31T02:26:16.155Z,4.74
2015-10-31T02:26:28.451Z,4.87
2015-10-31T02:26:40.748Z,4.84
2015-10-31T02:26:53.030Z,4.87
2015-10-31T02:27:05.326Z,4.9
2015-10-31T02:27:17.623Z,4.9
2015-10-31T02:27:29.936Z,4.87
2015-10-31T02:27:42.092Z,4.87
2015-10-31T02:27:54.422Z,4.84
2015-10-31T02:28:06.750Z,4.96
2015-10-31T02:28:19.094Z,4.93
2015-10-31T02:28:31.422Z,4.96
2015-10-31T02:28:43.721Z,4.97
2015-10-31T02:28:56.018Z,4.92
2015-10-31T02:29:08.299Z,4.92
2015-10-31T02:29:20.596Z,4.92
2015-10-31T02:29:32.752Z,4.99
2015-10-31T02:29:45.050Z,4.93
2015-10-31T02:29:57.363Z,4.99
2015-10-31T02:30:09.675Z,5.02
2015-10-31T02:30:22.003Z,4.92
2015-10-31T02:30:34.331Z,4.97
2015-10-31T02:30:46.693Z,5.02
2015-10-31T02:30:58.990Z,4.99
2015-10-31T02:31:11.271Z,4.97
2015-10-31T02:31:23.568Z,4.97
2015-10-31T02:31:35.865Z,5.05
2015-10-31T02:31:48.164Z,4.99
2015-10-31T02:32:00.460Z,4.97
2015-10-31T02:32:12.773Z,5.02
2015-10-31T02:32:25.085Z,4.99
2015-10-31T02:32:37.398Z,4.99
2015-10-31T02:32:49.713Z,4.99
2015-10-31T02:33:02.042Z,4.99
2015-10-31T02:33:14.370Z,4.99
2015-10-31T02:33:26.667Z,5.04
2015-10-31T02:33:38.963Z,4.94
2015-10-31T02:33:51.262Z,4.99
2015-10-31T02:34:03.559Z,4.99
2015-10-31T02:34:15.872Z,4.99
2015-10-31T02:34:28.169Z,4.93
2015-10-31T02:34:40.465Z,4.96
2015-10-31T02:34:52.780Z,4.99
2015-10-31T02:35:05.108Z,5.04
2015-10-31T02:35:17.467Z,5.05
2015-10-31T02:35:29.796Z,5.1
2015-10-31T02:35:42.139Z,5.11
2015-10-31T02:35:54.455Z,5.07
2015-10-31T02:36:06.736Z,5.07
2015-10-31T02:36:19.033Z,5.08
2015-10-31T02:36:31.330Z,5.12
2015-10-31T02:36:43.627Z,5.14
2015-10-31T02:36:55.926Z,5.15
2015-10-31T02:37:08.238Z,5.18
2015-10-31T02:37:20.551Z,5.21
2015-10-31T02:37:32.863Z,5.23
2015-10-31T02:37:45.193Z,5.18
2015-10-31T02:37:57.537Z,5.18
2015-10-31T02:38:09.834Z,5.21
2015-10-31T02:38:22.131Z,5.17
2015-10-31T02:38:34.443Z,5.3
2015-10-31T02:38:46.743Z,5.28
2015-10-31T02:38:59.024Z,5.32
2015-10-31T02:39:11.321Z,5.33
2015-10-31T02:39:23.618Z,5.29
2015-10-31T02:39:35.946Z,5.36
2015-10-31T02:39:48.293Z,5.35
2015-10-31T02:40:00.605Z,5.3
2015-10-31T02:40:12.887Z,5.33
2015-10-31T02:40:25.184Z,5.3
2015-10-31T02:40:37.496Z,5.28
2015-10-31T02:40:49.780Z,5.3
2015-10-31T02:41:02.077Z,5.3
2015-10-31T02:41:14.390Z,5.3
2015-10-31T02:41:26.702Z,5.29
2015-10-31T02:41:39.093Z,5.35
2015-10-31T02:41:51.423Z,5.32
2015-10-31T02:42:03.720Z,5.38
2015-10-31T02:42:16.017Z,5.41
2015-10-31T02:42:28.314Z,5.39
2015-10-31T02:42:40.610Z,5.36
2015-10-31T02:42:52.926Z,5.36
2015-10-31T02:43:05.223Z,5.36
2015-10-31T02:43:17.535Z,5.43
2015-10-31T02:43:29.848Z,5.35
2015-10-31T02:43:42.160Z,5.29
2015-10-31T02:43:54.491Z,5.38
2015-10-31T02:44:06.804Z,5.32
2015-10-31T02:44:19.116Z,5.3
2015-10-31T02:44:31.413Z,5.3
2015-10-31T02:44:43.710Z,5.32
2015-10-31T02:44:56.009Z,5.36
2015-10-31T02:45:08.306Z,5.32
2015-10-31T02:45:20.603Z,5.28
2015-10-31T02:45:32.900Z,5.33